Estherville, Iowa
Current Conditions -  °F | °C
As of 4:15 PM on Wednesday 28 Jan 2015 (Local Time) from KEST Reporting Station
Haze Haze  
Wind Chill: -5°   Ceiling: 700
Heat Index:   Visibility: 3mi
Dew Point: -1°   Wind: 16mph
Humidity: 92%   Direction: 150°SSE
Pressure: 29.7"   Gusts: NA
Location:  43.4°N, 94.84°W
Report Text: KEST 282215Z AUTO 15014KT 3SM BR OVC007 01/M01 A2970 RMK AO2 T00061006
Loading
Personal Weather Stations






























Interactive Weather Map New forecast layout! Learn more

10-Day Weather Forecast

Advertisements
Track Severe Weather on mobile